createdAt,value
2023-03-22T00:03:03.197Z,10.74
2023-03-22T00:08:07.330Z,10.74
2023-03-22T00:13:11.503Z,10.78
2023-03-22T00:18:15.623Z,10.84
2023-03-22T00:23:19.841Z,10.87
2023-03-22T00:28:23.975Z,10.85
2023-03-22T00:33:28.156Z,10.88
2023-03-22T00:38:41.624Z,10.86
2023-03-22T00:43:36.477Z,10.84
2023-03-22T00:48:40.682Z,10.86
2023-03-22T00:53:43.626Z,10.87
2023-03-22T00:58:47.047Z,10.88
2023-03-22T01:03:49.381Z,10.83
2023-03-22T01:08:53.456Z,10.79
2023-03-22T01:13:57.648Z,10.68
2023-03-22T01:19:01.782Z,10.61
2023-03-22T01:24:05.963Z,10.61
2023-03-22T01:29:10.136Z,10.71
2023-03-22T01:34:14.271Z,10.70
2023-03-22T01:39:18.428Z,10.65
2023-03-22T01:44:22.582Z,10.55
2023-03-22T01:49:26.761Z,10.43
2023-03-22T01:54:30.929Z,10.40
2023-03-22T01:59:35.068Z,10.37
2023-03-22T02:04:39.393Z,10.40
2023-03-22T02:09:43.478Z,10.37
2023-03-22T02:14:47.588Z,10.37
2023-03-22T02:19:51.745Z,10.32
2023-03-22T02:24:55.895Z,10.24
2023-03-22T02:30:00.055Z,10.18
2023-03-22T02:35:04.205Z,10.16
2023-03-22T02:40:08.391Z,10.11
2023-03-22T02:45:12.524Z,10.08
2023-03-22T02:50:14.823Z,10.02
2023-03-22T02:55:18.969Z,9.93
2023-03-22T03:05:27.275Z,9.86
2023-03-22T03:10:31.515Z,9.83
2023-03-22T03:15:33.736Z,9.81
2023-03-22T03:20:38.369Z,9.73
2023-03-22T03:25:42.045Z,9.66
2023-03-22T03:30:46.204Z,9.61
2023-03-22T03:35:50.439Z,9.52
2023-03-22T03:40:54.530Z,9.55
2023-03-22T03:45:58.780Z,9.49
2023-03-22T03:51:02.848Z,9.41
2023-03-22T03:56:07.030Z,9.42
2023-03-22T04:01:11.177Z,9.42
2023-03-22T04:06:15.344Z,9.38
2023-03-22T04:11:19.491Z,9.28
2023-03-22T04:16:23.684Z,9.30
2023-03-22T04:21:27.851Z,9.29
2023-03-22T04:26:32.004Z,9.25
2023-03-22T04:31:36.160Z,9.19
2023-03-22T04:36:40.314Z,9.17
2023-03-22T04:41:44.449Z,9.20
2023-03-22T04:46:48.670Z,9.24
2023-03-22T04:51:52.800Z,9.31
2023-03-22T04:56:56.966Z,9.40
2023-03-22T05:01:59.346Z,9.32
2023-03-22T05:07:03.399Z,9.33
2023-03-22T05:12:05.648Z,9.29
2023-03-22T05:17:09.843Z,9.27
2023-03-22T05:22:13.968Z,9.31
2023-03-22T05:27:18.161Z,9.36
2023-03-22T05:32:22.273Z,9.40
2023-03-22T05:37:26.491Z,9.47
2023-03-22T05:42:30.611Z,9.58
2023-03-22T05:47:34.810Z,9.65
2023-03-22T05:52:38.986Z,9.75
2023-03-22T05:57:43.141Z,9.84
2023-03-22T06:02:47.394Z,9.95
2023-03-22T06:07:51.452Z,9.99
2023-03-22T06:12:55.630Z,10.02
2023-03-22T06:17:57.880Z,10.11
2023-03-22T06:23:02.070Z,10.24
2023-03-22T06:28:08.587Z,10.29
2023-03-22T06:33:10.379Z,10.34
2023-03-22T06:38:14.528Z,10.43
2023-03-22T06:43:18.694Z,10.53
2023-03-22T06:48:22.877Z,10.65
2023-03-22T06:53:27.012Z,10.73
2023-03-22T06:58:29.297Z,10.81
2023-03-22T07:03:33.437Z,10.93
2023-03-22T07:08:37.628Z,11.01
2023-03-22T07:13:41.778Z,11.12
2023-03-22T07:18:45.908Z,11.12
2023-03-22T07:23:50.085Z,11.12
2023-03-22T07:28:54.214Z,11.12
2023-03-22T07:33:58.412Z,11.14
2023-03-22T07:39:02.565Z,11.20
2023-03-22T07:44:17.190Z,11.29
2023-03-22T07:49:10.899Z,11.46
2023-03-22T07:54:30.518Z,11.74
2023-03-22T07:59:19.272Z,12.06
2023-03-22T08:04:23.401Z,12.18
2023-03-22T08:09:27.689Z,12.32
2023-03-22T08:14:36.624Z,12.25
2023-03-22T08:19:36.169Z,12.13
2023-03-22T08:24:39.986Z,12.16
2023-03-22T08:29:44.193Z,12.27
2023-03-22T08:34:48.326Z,12.41
2023-03-22T08:39:52.506Z,12.56
2023-03-22T08:44:54.862Z,12.61
2023-03-22T08:49:58.938Z,12.57
2023-03-22T08:55:01.157Z,12.62
2023-03-22T09:00:05.359Z,12.83
2023-03-22T09:05:09.521Z,12.76
2023-03-22T09:10:11.804Z,12.87
2023-03-22T09:15:16.052Z,12.77
2023-03-22T09:20:20.086Z,13.15
2023-03-22T09:25:24.273Z,13.27
2023-03-22T09:30:28.415Z,13.33
2023-03-22T09:35:32.570Z,13.41
2023-03-22T09:40:36.765Z,13.31
2023-03-22T09:45:41.178Z,13.24
2023-03-22T09:50:45.056Z,13.11
2023-03-22T09:55:49.185Z,13.46
2023-03-22T10:00:53.518Z,13.79
2023-03-22T10:05:57.534Z,13.56
2023-03-22T10:11:01.706Z,13.43
2023-03-22T10:16:05.865Z,13.45
2023-03-22T10:21:10.019Z,13.49
2023-03-22T10:26:14.173Z,13.51
2023-03-22T10:31:18.342Z,13.61
2023-03-22T10:36:22.482Z,13.60
2023-03-22T10:41:26.690Z,13.67
2023-03-22T10:46:30.820Z,13.76
2023-03-22T10:51:34.986Z,13.64
2023-03-22T10:56:37.266Z,13.69
2023-03-22T11:01:41.463Z,13.66
2023-03-22T11:11:47.870Z,13.89
2023-03-22T11:16:50.181Z,13.98
2023-03-22T11:21:54.271Z,13.90
2023-03-22T11:26:58.423Z,13.90
2023-03-22T11:32:02.607Z,14.01
2023-03-22T11:37:06.776Z,14.01
2023-03-22T11:42:10.921Z,13.90
2023-03-22T11:47:15.088Z,13.72
2023-03-22T11:52:19.256Z,13.71
2023-03-22T11:57:23.415Z,13.55
2023-03-22T12:02:27.594Z,13.48
2023-03-22T12:07:31.689Z,13.39
2023-03-22T12:12:35.837Z,13.38
2023-03-22T12:17:40.093Z,13.50
2023-03-22T12:22:44.187Z,13.52
2023-03-22T12:27:48.356Z,13.42
2023-03-22T12:32:52.614Z,13.42
2023-03-22T12:37:56.678Z,13.47
2023-03-22T12:43:01.068Z,13.49
2023-03-22T12:48:05.137Z,13.52
2023-03-22T12:53:09.183Z,13.36
2023-03-22T12:58:13.335Z,13.31
2023-03-22T13:03:15.813Z,13.17
2023-03-22T13:08:19.773Z,13.16
2023-03-22T13:13:23.883Z,13.06
2023-03-22T13:18:26.197Z,12.89
2023-03-22T13:23:30.433Z,12.83
2023-03-22T13:28:34.524Z,12.80
2023-03-22T13:33:38.754Z,12.87
2023-03-22T13:38:43.006Z,12.95
2023-03-22T13:43:46.984Z,12.97
2023-03-22T13:48:51.155Z,12.92
2023-03-22T13:58:59.457Z,12.98
2023-03-22T14:04:03.642Z,13.06
2023-03-22T14:09:07.771Z,13.20
2023-03-22T14:14:11.911Z,13.16
2023-03-22T14:19:16.110Z,13.27
2023-03-22T14:59:49.450Z,12.89
2023-03-22T15:04:53.563Z,12.85
2023-03-22T15:09:55.777Z,12.90
2023-03-22T15:14:59.960Z,12.91
2023-03-22T15:20:04.150Z,12.89
2023-03-22T15:25:08.285Z,12.89
2023-03-22T15:30:12.452Z,12.95
2023-03-22T15:35:16.611Z,12.93
2023-03-22T15:40:20.774Z,12.89
2023-03-22T15:45:25.032Z,12.84
2023-03-22T15:50:29.074Z,12.77
2023-03-22T15:55:33.332Z,12.73
2023-03-22T16:00:37.416Z,12.72
2023-03-22T16:05:41.785Z,12.74
2023-03-22T16:10:45.729Z,12.78
2023-03-22T16:15:50.073Z,12.82
2023-03-22T16:20:54.026Z,12.84
2023-03-22T16:25:58.234Z,12.82
2023-03-22T16:31:03.408Z,12.83
2023-03-22T16:36:08.522Z,12.84
2023-03-22T16:41:10.709Z,12.86
2023-03-22T16:46:14.891Z,12.85
2023-03-22T16:51:19.017Z,12.85
2023-03-22T16:56:21.286Z,12.91
2023-03-22T17:01:25.488Z,12.89
2023-03-22T17:06:27.696Z,12.86
2023-03-22T17:11:31.917Z,12.85
2023-03-22T17:16:36.090Z,12.84
2023-03-22T17:21:40.197Z,12.86
2023-03-22T17:26:44.384Z,12.83
2023-03-22T17:31:57.825Z,12.82
2023-03-22T17:36:52.705Z,12.84
2023-03-22T17:41:56.824Z,12.82
2023-03-22T17:47:34.722Z,12.82
2023-03-22T17:52:05.317Z,12.79
2023-03-22T18:02:16.246Z,12.82
2023-03-22T18:07:17.671Z,12.82
2023-03-22T18:12:21.792Z,12.79
2023-03-22T18:17:25.930Z,12.88
2023-03-22T18:22:30.138Z,12.87
2023-03-22T18:27:47.490Z,12.88
2023-03-22T18:32:56.616Z,12.86
2023-03-22T18:37:42.618Z,12.85
2023-03-22T18:42:48.687Z,12.83
2023-03-22T18:47:50.901Z,12.82
2023-03-22T18:57:57.348Z,12.81
2023-03-22T19:03:01.512Z,12.79
2023-03-22T19:13:09.889Z,12.85
2023-03-22T19:18:14.003Z,12.90
2023-03-22T19:23:18.163Z,12.90
2023-03-22T19:28:27.092Z,12.86
2023-03-22T19:33:39.771Z,12.85
2023-03-22T19:38:30.659Z,12.81
2023-03-22T19:43:34.797Z,12.80
2023-03-22T19:48:38.990Z,12.78
2023-03-22T19:54:14.092Z,12.84
2023-03-22T19:58:47.274Z,12.77
2023-03-22T20:03:51.507Z,12.79
2023-03-22T20:08:55.654Z,12.79
2023-03-22T20:19:03.945Z,12.74
2023-03-22T20:24:08.088Z,12.64
2023-03-22T20:29:12.288Z,12.61
2023-03-22T20:34:16.542Z,12.59
2023-03-22T20:39:20.690Z,12.58
2023-03-22T20:44:22.880Z,12.55
2023-03-22T20:49:26.985Z,12.52
2023-03-22T20:54:29.272Z,12.52
2023-03-22T20:59:33.469Z,12.52
2023-03-22T21:04:37.585Z,12.51
2023-03-22T21:09:41.717Z,12.48
2023-03-22T21:14:45.880Z,12.46
2023-03-22T21:19:50.075Z,12.40
2023-03-22T21:24:54.206Z,12.36
2023-03-22T21:29:58.398Z,12.30
2023-03-22T21:35:02.534Z,12.21
2023-03-22T21:40:06.707Z,12.16
2023-03-22T21:45:10.890Z,12.09
2023-03-22T21:50:15.043Z,12.04
2023-03-22T21:55:19.181Z,12.01
2023-03-22T22:00:23.331Z,11.96
2023-03-22T22:05:27.536Z,11.88
2023-03-22T22:10:31.682Z,11.79
2023-03-22T22:15:35.801Z,11.71
2023-03-22T22:20:39.998Z,11.71
2023-03-22T22:25:44.146Z,11.68
2023-03-22T22:30:48.321Z,11.66
2023-03-22T22:35:52.484Z,11.61
2023-03-22T22:40:54.740Z,11.58
2023-03-22T22:45:58.931Z,11.57
2023-03-22T22:51:01.193Z,11.54
2023-03-22T22:56:05.357Z,11.52
2023-03-22T23:01:09.475Z,11.47
2023-03-22T23:06:13.709Z,11.40
2023-03-22T23:11:17.811Z,11.33
2023-03-22T23:16:20.079Z,11.24
2023-03-22T23:21:24.229Z,11.17
2023-03-22T23:26:28.389Z,11.06
2023-03-22T23:31:32.537Z,10.99
2023-03-22T23:36:36.744Z,10.91
2023-03-22T23:41:40.906Z,10.86
2023-03-22T23:46:45.037Z,10.81
2023-03-22T23:51:49.178Z,10.78
2023-03-22T23:56:53.348Z,10.77
